sensor_id;sensor_type;location;lat;lon;timestamp;P1;durP1;ratioP1;P2;durP2;ratioP2
62457;SDS011;48509;52.122;5.250;2022-09-17T00:00:01;24.2;;;3.7;;
62457;SDS011;48509;52.122;5.250;2022-09-17T00:01:38;20.0;;;3.9;;
62457;SDS011;48509;52.122;5.250;2022-09-17T00:03:14;20.5;;;3.6;;
62457;SDS011;48509;52.122;5.250;2022-09-17T00:04:52;19.91;;;3.7;;
62457;SDS011;48509;52.122;5.250;2022-09-17T00:08:06;23.5;;;3.8;;
62457;SDS011;48509;52.122;5.250;2022-09-17T00:09:46;20.7;;;3.4;;
62457;SDS011;48509;52.122;5.250;2022-09-17T00:11:22;20.2;;;3.9;;
62457;SDS011;48509;52.122;5.250;2022-09-17T00:14:37;18.5;;;3.8;;
62457;SDS011;48509;52.122;5.250;2022-09-17T00:16:21;21.1;;;3.6;;
62457;SDS011;48509;52.122;5.250;2022-09-17T00:18:00;23.3;;;3.9;;
62457;SDS011;48509;52.122;5.250;2022-09-17T00:19:36;22.1;;;3.5;;
62457;SDS011;48509;52.122;5.250;2022-09-17T00:22:51;20.6;;;3.8;;
62457;SDS011;48509;52.122;5.250;2022-09-17T00:24:28;19.41;;;3.7;;
62457;SDS011;48509;52.122;5.250;2022-09-17T00:26:04;18.0;;;3.4;;
62457;SDS011;48509;52.122;5.250;2022-09-17T00:29:16;17.5;;;3.4;;
62457;SDS011;48509;52.122;5.250;2022-09-17T00:30:52;17.5;;;3.4;;
62457;SDS011;48509;52.122;5.250;2022-09-17T00:32:28;20.3;;;3.8;;
62457;SDS011;48509;52.122;5.250;2022-09-17T00:35:43;22.6;;;4.0;;
62457;SDS011;48509;52.122;5.250;2022-09-17T00:37:20;26.4;;;3.6;;
62457;SDS011;48509;52.122;5.250;2022-09-17T00:38:57;20.0;;;4.0;;
62457;SDS011;48509;52.122;5.250;2022-09-17T00:40:35;23.1;;;3.6;;
62457;SDS011;48509;52.122;5.250;2022-09-17T00:43:53;18.3;;;3.5;;
62457;SDS011;48509;52.122;5.250;2022-09-17T00:45:31;18.11;;;3.3;;
62457;SDS011;48509;52.122;5.250;2022-09-17T00:47:10;23.8;;;4.0;;
62457;SDS011;48509;52.122;5.250;2022-09-17T00:48:52;22.7;;;3.7;;
62457;SDS011;48509;52.122;5.250;2022-09-17T00:52:11;18.7;;;3.5;;
62457;SDS011;48509;52.122;5.250;2022-09-17T00:53:50;17.5;;;3.6;;
62457;SDS011;48509;52.122;5.250;2022-09-17T00:55:27;19.0;;;3.6;;
62457;SDS011;48509;52.122;5.250;2022-09-17T00:58:43;22.6;;;3.9;;
62457;SDS011;48509;52.122;5.250;2022-09-17T01:00:20;22.5;;;3.6;;
62457;SDS011;48509;52.122;5.250;2022-09-17T01:01:57;24.4;;;3.8;;
62457;SDS011;48509;52.122;5.250;2022-09-17T01:03:34;18.3;;;3.3;;
62457;SDS011;48509;52.122;5.250;2022-09-17T01:06:51;22.6;;;4.2;;
62457;SDS011;48509;52.122;5.250;2022-09-17T01:08:46;19.7;;;3.8;;
62457;SDS011;48509;52.122;5.250;2022-09-17T01:10:47;19.11;;;3.2;;
62457;SDS011;48509;52.122;5.250;2022-09-17T01:12:40;23.2;;;3.6;;
62457;SDS011;48509;52.122;5.250;2022-09-17T01:14:35;20.41;;;4.0;;
62457;SDS011;48509;52.122;5.250;2022-09-17T01:16:31;17.8;;;3.3;;
62457;SDS011;48509;52.122;5.250;2022-09-17T01:18:21;19.0;;;3.9;;
62457;SDS011;48509;52.122;5.250;2022-09-17T01:20:26;24.5;;;4.2;;
62457;SDS011;48509;52.122;5.250;2022-09-17T01:22:38;16.61;;;3.6;;
62457;SDS011;48509;52.122;5.250;2022-09-17T01:24:34;19.91;;;3.7;;
62457;SDS011;48509;52.122;5.250;2022-09-17T01:26:41;19.2;;;3.8;;
62457;SDS011;48509;52.122;5.250;2022-09-17T01:30:14;16.9;;;3.3;;
62457;SDS011;48509;52.122;5.250;2022-09-17T01:32:34;22.4;;;4.2;;
62457;SDS011;48509;52.122;5.250;2022-09-17T01:34:19;24.3;;;3.6;;
62457;SDS011;48509;52.122;5.250;2022-09-17T01:36:05;21.0;;;3.4;;
62457;SDS011;48509;52.122;5.250;2022-09-17T01:38:08;22.6;;;3.6;;
62457;SDS011;48509;52.122;5.250;2022-09-17T01:39:54;20.3;;;3.9;;
62457;SDS011;48509;52.122;5.250;2022-09-17T01:41:40;17.8;;;3.3;;
62457;SDS011;48509;52.122;5.250;2022-09-17T01:43:27;16.2;;;3.3;;
62457;SDS011;48509;52.122;5.250;2022-09-17T01:46:54;24.5;;;3.5;;
62457;SDS011;48509;52.122;5.250;2022-09-17T01:48:39;21.0;;;3.8;;
62457;SDS011;48509;52.122;5.250;2022-09-17T01:50:21;19.2;;;3.4;;
62457;SDS011;48509;52.122;5.250;2022-09-17T01:52:05;18.8;;;2.8;;
62457;SDS011;48509;52.122;5.250;2022-09-17T01:53:47;15.9;;;3.2;;
62457;SDS011;48509;52.122;5.250;2022-09-17T01:57:13;18.0;;;3.3;;
62457;SDS011;48509;52.122;5.250;2022-09-17T01:58:55;15.9;;;3.0;;
62457;SDS011;48509;52.122;5.250;2022-09-17T02:00:37;16.3;;;3.1;;
62457;SDS011;48509;52.122;5.250;2022-09-17T02:02:20;16.7;;;3.0;;
62457;SDS011;48509;52.122;5.250;2022-09-17T02:05:45;13.5;;;2.6;;
62457;SDS011;48509;52.122;5.250;2022-09-17T02:07:28;15.2;;;2.8;;
62457;SDS011;48509;52.122;5.250;2022-09-17T02:09:10;21.0;;;3.2;;
62457;SDS011;48509;52.122;5.250;2022-09-17T02:10:54;13.5;;;2.9;;
62457;SDS011;48509;52.122;5.250;2022-09-17T02:12:34;14.7;;;2.8;;
62457;SDS011;48509;52.122;5.250;2022-09-17T02:16:01;17.91;;;3.2;;
62457;SDS011;48509;52.122;5.250;2022-09-17T02:17:43;15.1;;;2.9;;
62457;SDS011;48509;52.122;5.250;2022-09-17T02:19:25;17.2;;;2.9;;
62457;SDS011;48509;52.122;5.250;2022-09-17T02:21:06;15.9;;;2.8;;
62457;SDS011;48509;52.122;5.250;2022-09-17T02:24:29;12.3;;;2.6;;
62457;SDS011;48509;52.122;5.250;2022-09-17T02:26:14;16.3;;;3.0;;
62457;SDS011;48509;52.122;5.250;2022-09-17T02:27:56;13.3;;;2.7;;
62457;SDS011;48509;52.122;5.250;2022-09-17T02:29:37;17.61;;;2.9;;
62457;SDS011;48509;52.122;5.250;2022-09-17T02:32:53;19.3;;;3.0;;
62457;SDS011;48509;52.122;5.250;2022-09-17T02:34:30;14.0;;;2.6;;
62457;SDS011;48509;52.122;5.250;2022-09-17T02:36:07;20.9;;;3.1;;
62457;SDS011;48509;52.122;5.250;2022-09-17T02:37:43;14.9;;;3.0;;
62457;SDS011;48509;52.122;5.250;2022-09-17T02:40:59;19.11;;;3.2;;
62457;SDS011;48509;52.122;5.250;2022-09-17T02:42:51;14.4;;;2.7;;
62457;SDS011;48509;52.122;5.250;2022-09-17T02:44:42;17.61;;;3.2;;
62457;SDS011;48509;52.122;5.250;2022-09-17T02:46:40;17.61;;;3.2;;
62457;SDS011;48509;52.122;5.250;2022-09-17T02:48:38;12.2;;;2.6;;
62457;SDS011;48509;52.122;5.250;2022-09-17T02:50:43;17.91;;;3.0;;
62457;SDS011;48509;52.122;5.250;2022-09-17T02:52:38;17.41;;;3.0;;
62457;SDS011;48509;52.122;5.250;2022-09-17T02:54:30;16.8;;;3.1;;
62457;SDS011;48509;52.122;5.250;2022-09-17T02:58:04;15.0;;;2.6;;
62457;SDS011;48509;52.122;5.250;2022-09-17T02:59:53;16.4;;;3.0;;
62457;SDS011;48509;52.122;5.250;2022-09-17T03:01:37;15.4;;;2.8;;
62457;SDS011;48509;52.122;5.250;2022-09-17T03:03:19;25.8;;;3.4;;
62457;SDS011;48509;52.122;5.250;2022-09-17T03:05:03;13.6;;;2.8;;
62457;SDS011;48509;52.122;5.250;2022-09-17T03:08:26;18.7;;;3.0;;
62457;SDS011;48509;52.122;5.250;2022-09-17T03:10:03;16.61;;;3.1;;
62457;SDS011;48509;52.122;5.250;2022-09-17T03:11:40;14.0;;;2.8;;
62457;SDS011;48509;52.122;5.250;2022-09-17T03:13:18;15.5;;;2.6;;
62457;SDS011;48509;52.122;5.250;2022-09-17T03:16:31;18.0;;;3.3;;
62457;SDS011;48509;52.122;5.250;2022-09-17T03:18:08;18.41;;;3.1;;
62457;SDS011;48509;52.122;5.250;2022-09-17T03:19:44;15.7;;;2.8;;
62457;SDS011;48509;52.122;5.250;2022-09-17T03:22:56;20.9;;;3.3;;
62457;SDS011;48509;52.122;5.250;2022-09-17T03:24:32;19.5;;;3.3;;
62457;SDS011;48509;52.122;5.250;2022-09-17T03:26:08;17.91;;;3.2;;
62457;SDS011;48509;52.122;5.250;2022-09-17T03:29:20;17.41;;;3.1;;
62457;SDS011;48509;52.122;5.250;2022-09-17T03:30:57;15.0;;;2.8;;
62457;SDS011;48509;52.122;5.250;2022-09-17T03:32:33;15.4;;;3.2;;
62457;SDS011;48509;52.122;5.250;2022-09-17T03:34:10;17.2;;;3.2;;
62457;SDS011;48509;52.122;5.250;2022-09-17T03:37:23;16.4;;;3.2;;
62457;SDS011;48509;52.122;5.250;2022-09-17T03:39:00;23.0;;;3.0;;
62457;SDS011;48509;52.122;5.250;2022-09-17T03:40:36;15.8;;;2.9;;
62457;SDS011;48509;52.122;5.250;2022-09-17T03:43:49;22.5;;;3.3;;
62457;SDS011;48509;52.122;5.250;2022-09-17T03:47:02;13.9;;;2.9;;
62457;SDS011;48509;52.122;5.250;2022-09-17T03:50:15;15.2;;;2.9;;
62457;SDS011;48509;52.122;5.250;2022-09-17T03:51:51;17.5;;;3.3;;
62457;SDS011;48509;52.122;5.250;2022-09-17T03:53:27;19.91;;;3.5;;
62457;SDS011;48509;52.122;5.250;2022-09-17T03:55:04;17.5;;;3.3;;
62457;SDS011;48509;52.122;5.250;2022-09-17T03:58:17;19.8;;;3.0;;
62457;SDS011;48509;52.122;5.250;2022-09-17T03:59:53;19.0;;;3.3;;
62457;SDS011;48509;52.122;5.250;2022-09-17T04:01:29;15.4;;;3.1;;
62457;SDS011;48509;52.122;5.250;2022-09-17T04:04:42;16.8;;;3.1;;
62457;SDS011;48509;52.122;5.250;2022-09-17T04:07:55;15.7;;;2.7;;
62457;SDS011;48509;52.122;5.250;2022-09-17T04:11:09;15.1;;;2.6;;
62457;SDS011;48509;52.122;5.250;2022-09-17T04:12:45;19.41;;;3.3;;
62457;SDS011;48509;52.122;5.250;2022-09-17T04:14:21;15.5;;;3.0;;
62457;SDS011;48509;52.122;5.250;2022-09-17T04:15:57;14.8;;;2.8;;
62457;SDS011;48509;52.122;5.250;2022-09-17T04:19:10;14.5;;;2.5;;
62457;SDS011;48509;52.122;5.250;2022-09-17T04:20:46;16.7;;;2.8;;
62457;SDS011;48509;52.122;5.250;2022-09-17T04:22:22;18.8;;;3.0;;
62457;SDS011;48509;52.122;5.250;2022-09-17T04:25:36;13.6;;;2.7;;
62457;SDS011;48509;52.122;5.250;2022-09-17T04:27:13;11.2;;;2.7;;
62457;SDS011;48509;52.122;5.250;2022-09-17T04:28:49;13.1;;;2.8;;
62457;SDS011;48509;52.122;5.250;2022-09-17T04:32:02;14.0;;;2.6;;
62457;SDS011;48509;52.122;5.250;2022-09-17T04:33:38;14.8;;;2.6;;
62457;SDS011;48509;52.122;5.250;2022-09-17T04:35:15;13.2;;;2.5;;
62457;SDS011;48509;52.122;5.250;2022-09-17T04:36:51;14.6;;;2.5;;
62457;SDS011;48509;52.122;5.250;2022-09-17T04:40:04;13.2;;;2.8;;
62457;SDS011;48509;52.122;5.250;2022-09-17T04:41:42;15.0;;;2.6;;
62457;SDS011;48509;52.122;5.250;2022-09-17T04:43:18;12.4;;;2.4;;
62457;SDS011;48509;52.122;5.250;2022-09-17T04:46:31;11.9;;;2.4;;
62457;SDS011;48509;52.122;5.250;2022-09-17T04:48:07;12.2;;;2.21;;
62457;SDS011;48509;52.122;5.250;2022-09-17T04:49:43;9.9;;;2.1;;
62457;SDS011;48509;52.122;5.250;2022-09-17T04:52:55;9.71;;;1.9;;
62457;SDS011;48509;52.122;5.250;2022-09-17T04:54:32;8.5;;;1.8;;
62457;SDS011;48509;52.122;5.250;2022-09-17T04:56:08;11.1;;;1.9;;
62457;SDS011;48509;52.122;5.250;2022-09-17T04:57:45;12.1;;;2.0;;
62457;SDS011;48509;52.122;5.250;2022-09-17T05:00:58;12.5;;;2.0;;
62457;SDS011;48509;52.122;5.250;2022-09-17T05:02:34;9.1;;;1.8;;
62457;SDS011;48509;52.122;5.250;2022-09-17T05:04:10;9.1;;;1.8;;
62457;SDS011;48509;52.122;5.250;2022-09-17T05:07:22;12.2;;;2.0;;
62457;SDS011;48509;52.122;5.250;2022-09-17T05:08:59;11.4;;;2.0;;
62457;SDS011;48509;52.122;5.250;2022-09-17T05:10:35;7.7;;;1.7;;
62457;SDS011;48509;52.122;5.250;2022-09-17T05:13:48;7.9;;;1.6;;
62457;SDS011;48509;52.122;5.250;2022-09-17T05:15:24;8.4;;;1.7;;
62457;SDS011;48509;52.122;5.250;2022-09-17T05:17:01;9.21;;;1.5;;
62457;SDS011;48509;52.122;5.250;2022-09-17T05:20:14;9.4;;;1.9;;
62457;SDS011;48509;52.122;5.250;2022-09-17T05:21:51;11.3;;;1.8;;
62457;SDS011;48509;52.122;5.250;2022-09-17T05:23:27;10.5;;;2.1;;
62457;SDS011;48509;52.122;5.250;2022-09-17T05:25:04;13.6;;;2.1;;
62457;SDS011;48509;52.122;5.250;2022-09-17T05:28:17;10.3;;;1.8;;
62457;SDS011;48509;52.122;5.250;2022-09-17T05:29:53;11.9;;;2.1;;
62457;SDS011;48509;52.122;5.250;2022-09-17T05:31:30;11.3;;;1.7;;
62457;SDS011;48509;52.122;5.250;2022-09-17T05:34:42;12.5;;;1.8;;
62457;SDS011;48509;52.122;5.250;2022-09-17T05:36:19;10.6;;;2.0;;
62457;SDS011;48509;52.122;5.250;2022-09-17T05:37:56;8.4;;;1.9;;
62457;SDS011;48509;52.122;5.250;2022-09-17T05:41:09;13.9;;;2.31;;
62457;SDS011;48509;52.122;5.250;2022-09-17T05:42:45;7.4;;;1.9;;
62457;SDS011;48509;52.122;5.250;2022-09-17T05:44:22;11.7;;;1.8;;
62457;SDS011;48509;52.122;5.250;2022-09-17T05:46:00;9.21;;;1.7;;
62457;SDS011;48509;52.122;5.250;2022-09-17T05:49:14;12.2;;;2.1;;
62457;SDS011;48509;52.122;5.250;2022-09-17T05:50:50;10.1;;;2.1;;
62457;SDS011;48509;52.122;5.250;2022-09-17T05:52:27;8.9;;;1.7;;
62457;SDS011;48509;52.122;5.250;2022-09-17T05:55:41;14.1;;;2.4;;
62457;SDS011;48509;52.122;5.250;2022-09-17T05:57:19;9.71;;;1.8;;
62457;SDS011;48509;52.122;5.250;2022-09-17T05:58:56;9.81;;;1.9;;
62457;SDS011;48509;52.122;5.250;2022-09-17T06:00:32;9.0;;;1.7;;
62457;SDS011;48509;52.122;5.250;2022-09-17T06:03:48;12.9;;;2.21;;
62457;SDS011;48509;52.122;5.250;2022-09-17T06:05:24;10.4;;;1.8;;
62457;SDS011;48509;52.122;5.250;2022-09-17T06:07:02;8.0;;;1.7;;
62457;SDS011;48509;52.122;5.250;2022-09-17T06:10:16;11.3;;;2.1;;
62457;SDS011;48509;52.122;5.250;2022-09-17T06:11:52;12.9;;;2.1;;
62457;SDS011;48509;52.122;5.250;2022-09-17T06:13:29;10.6;;;2.0;;
62457;SDS011;48509;52.122;5.250;2022-09-17T06:15:08;12.1;;;1.8;;
62457;SDS011;48509;52.122;5.250;2022-09-17T06:18:22;13.4;;;2.0;;
62457;SDS011;48509;52.122;5.250;2022-09-17T06:20:00;9.6;;;1.8;;
62457;SDS011;48509;52.122;5.250;2022-09-17T06:21:37;11.7;;;2.1;;
62457;SDS011;48509;52.122;5.250;2022-09-17T06:24:50;10.0;;;2.0;;
62457;SDS011;48509;52.122;5.250;2022-09-17T06:26:27;8.71;;;1.7;;
62457;SDS011;48509;52.122;5.250;2022-09-17T06:28:03;9.31;;;1.8;;
62457;SDS011;48509;52.122;5.250;2022-09-17T06:31:16;11.7;;;2.21;;
62457;SDS011;48509;52.122;5.250;2022-09-17T06:32:52;12.0;;;1.9;;
62457;SDS011;48509;52.122;5.250;2022-09-17T06:34:29;8.4;;;1.9;;
62457;SDS011;48509;52.122;5.250;2022-09-17T06:36:06;10.4;;;1.8;;
62457;SDS011;48509;52.122;5.250;2022-09-17T06:39:21;11.9;;;2.0;;
62457;SDS011;48509;52.122;5.250;2022-09-17T06:40:57;11.8;;;2.1;;
62457;SDS011;48509;52.122;5.250;2022-09-17T06:42:33;11.9;;;1.7;;
62457;SDS011;48509;52.122;5.250;2022-09-17T06:45:50;13.1;;;2.31;;
62457;SDS011;48509;52.122;5.250;2022-09-17T06:47:27;13.6;;;2.0;;
62457;SDS011;48509;52.122;5.250;2022-09-17T06:49:03;13.3;;;2.21;;
62457;SDS011;48509;52.122;5.250;2022-09-17T06:52:16;10.7;;;2.0;;
62457;SDS011;48509;52.122;5.250;2022-09-17T06:53:52;9.21;;;2.1;;
62457;SDS011;48509;52.122;5.250;2022-09-17T06:55:28;12.5;;;2.1;;
62457;SDS011;48509;52.122;5.250;2022-09-17T06:57:04;10.5;;;2.21;;
62457;SDS011;48509;52.122;5.250;2022-09-17T07:00:19;13.9;;;2.21;;
62457;SDS011;48509;52.122;5.250;2022-09-17T07:01:55;11.9;;;2.1;;
62457;SDS011;48509;52.122;5.250;2022-09-17T07:03:31;11.2;;;2.21;;
62457;SDS011;48509;52.122;5.250;2022-09-17T07:06:44;13.4;;;2.31;;
62457;SDS011;48509;52.122;5.250;2022-09-17T07:08:21;14.4;;;2.4;;
62457;SDS011;48509;52.122;5.250;2022-09-17T07:09:57;9.0;;;1.7;;
62457;SDS011;48509;52.122;5.250;2022-09-17T07:13:10;13.9;;;2.1;;
62457;SDS011;48509;52.122;5.250;2022-09-17T07:14:47;12.9;;;2.31;;
62457;SDS011;48509;52.122;5.250;2022-09-17T07:16:23;11.6;;;2.21;;
62457;SDS011;48509;52.122;5.250;2022-09-17T07:18:06;16.9;;;2.4;;
62457;SDS011;48509;52.122;5.250;2022-09-17T07:21:20;16.3;;;2.31;;
62457;SDS011;48509;52.122;5.250;2022-09-17T07:22:56;11.9;;;2.31;;
62457;SDS011;48509;52.122;5.250;2022-09-17T07:24:33;12.3;;;2.31;;
62457;SDS011;48509;52.122;5.250;2022-09-17T07:27:48;12.9;;;2.21;;
62457;SDS011;48509;52.122;5.250;2022-09-17T07:29:26;13.4;;;2.21;;
62457;SDS011;48509;52.122;5.250;2022-09-17T07:31:03;11.8;;;2.31;;
62457;SDS011;48509;52.122;5.250;2022-09-17T07:32:40;9.6;;;1.9;;
62457;SDS011;48509;52.122;5.250;2022-09-17T07:35:54;10.3;;;2.1;;
62457;SDS011;48509;52.122;5.250;2022-09-17T07:37:31;13.3;;;2.4;;
62457;SDS011;48509;52.122;5.250;2022-09-17T07:39:08;19.5;;;2.4;;
62457;SDS011;48509;52.122;5.250;2022-09-17T07:42:28;15.3;;;2.5;;
62457;SDS011;48509;52.122;5.250;2022-09-17T07:44:05;10.1;;;1.8;;
62457;SDS011;48509;52.122;5.250;2022-09-17T07:45:41;12.6;;;1.9;;
62457;SDS011;48509;52.122;5.250;2022-09-17T07:47:17;9.5;;;1.9;;
62457;SDS011;48509;52.122;5.250;2022-09-17T07:50:32;14.0;;;2.1;;
62457;SDS011;48509;52.122;5.250;2022-09-17T07:52:08;11.7;;;2.1;;
62457;SDS011;48509;52.122;5.250;2022-09-17T07:53:44;11.1;;;1.9;;
62457;SDS011;48509;52.122;5.250;2022-09-17T07:57:02;11.9;;;2.21;;
62457;SDS011;48509;52.122;5.250;2022-09-17T07:58:39;11.8;;;2.21;;
62457;SDS011;48509;52.122;5.250;2022-09-17T08:00:15;13.2;;;1.9;;
62457;SDS011;48509;52.122;5.250;2022-09-17T08:01:51;14.4;;;2.21;;
62457;SDS011;48509;52.122;5.250;2022-09-17T08:05:04;9.5;;;1.8;;
62457;SDS011;48509;52.122;5.250;2022-09-17T08:06:40;15.7;;;2.31;;
62457;SDS011;48509;52.122;5.250;2022-09-17T08:08:17;11.2;;;2.0;;
62457;SDS011;48509;52.122;5.250;2022-09-17T08:11:29;10.1;;;1.7;;
62457;SDS011;48509;52.122;5.250;2022-09-17T08:13:06;11.4;;;2.21;;
62457;SDS011;48509;52.122;5.250;2022-09-17T08:14:43;10.21;;;2.1;;
62457;SDS011;48509;52.122;5.250;2022-09-17T08:17:57;10.5;;;1.9;;
62457;SDS011;48509;52.122;5.250;2022-09-17T08:19:33;9.6;;;1.8;;
62457;SDS011;48509;52.122;5.250;2022-09-17T08:21:10;12.5;;;2.0;;
62457;SDS011;48509;52.122;5.250;2022-09-17T08:22:49;8.0;;;1.7;;
62457;SDS011;48509;52.122;5.250;2022-09-17T08:26:02;10.6;;;2.0;;
62457;SDS011;48509;52.122;5.250;2022-09-17T08:27:40;8.5;;;1.9;;
62457;SDS011;48509;52.122;5.250;2022-09-17T08:29:16;10.0;;;1.8;;
62457;SDS011;48509;52.122;5.250;2022-09-17T08:32:34;11.9;;;1.9;;
62457;SDS011;48509;52.122;5.250;2022-09-17T08:34:09;9.71;;;1.9;;
62457;SDS011;48509;52.122;5.250;2022-09-17T08:35:49;6.3;;;1.5;;
62457;SDS011;48509;52.122;5.250;2022-09-17T08:37:26;6.9;;;1.5;;
62457;SDS011;48509;52.122;5.250;2022-09-17T08:40:40;6.9;;;1.5;;
62457;SDS011;48509;52.122;5.250;2022-09-17T08:42:35;8.31;;;1.6;;
62457;SDS011;48509;52.122;5.250;2022-09-17T08:44:18;11.4;;;1.5;;
62457;SDS011;48509;52.122;5.250;2022-09-17T08:46:01;6.4;;;1.4;;
62457;SDS011;48509;52.122;5.250;2022-09-17T08:49:24;9.9;;;1.5;;
62457;SDS011;48509;52.122;5.250;2022-09-17T08:51:10;8.2;;;1.6;;
62457;SDS011;48509;52.122;5.250;2022-09-17T08:53:22;6.8;;;1.4;;
62457;SDS011;48509;52.122;5.250;2022-09-17T08:55:12;9.21;;;1.4;;
62457;SDS011;48509;52.122;5.250;2022-09-17T08:57:02;7.2;;;1.3;;
62457;SDS011;48509;52.122;5.250;2022-09-17T08:58:55;7.4;;;1.5;;
62457;SDS011;48509;52.122;5.250;2022-09-17T09:00:43;6.7;;;1.3;;
62457;SDS011;48509;52.122;5.250;2022-09-17T09:04:31;8.9;;;1.4;;
62457;SDS011;48509;52.122;5.250;2022-09-17T09:06:21;12.6;;;1.6;;
62457;SDS011;48509;52.122;5.250;2022-09-17T09:08:03;11.6;;;1.8;;
62457;SDS011;48509;52.122;5.250;2022-09-17T09:09:48;9.9;;;1.9;;
62457;SDS011;48509;52.122;5.250;2022-09-17T09:11:32;8.81;;;1.7;;
62457;SDS011;48509;52.122;5.250;2022-09-17T09:13:10;9.4;;;1.8;;
62457;SDS011;48509;52.122;5.250;2022-09-17T09:16:36;9.9;;;1.8;;
62457;SDS011;48509;52.122;5.250;2022-09-17T09:18:17;8.6;;;1.7;;
62457;SDS011;48509;52.122;5.250;2022-09-17T09:19:55;8.0;;;1.5;;
62457;SDS011;48509;52.122;5.250;2022-09-17T09:21:33;9.5;;;1.6;;
62457;SDS011;48509;52.122;5.250;2022-09-17T09:25:13;6.8;;;1.4;;
62457;SDS011;48509;52.122;5.250;2022-09-17T09:26:57;8.71;;;2.1;;
62457;SDS011;48509;52.122;5.250;2022-09-17T09:28:51;9.71;;;1.5;;
62457;SDS011;48509;52.122;5.250;2022-09-17T09:31:10;6.6;;;1.6;;
62457;SDS011;48509;52.122;5.250;2022-09-17T09:33:04;8.71;;;1.6;;
62457;SDS011;48509;52.122;5.250;2022-09-17T09:34:48;11.3;;;1.7;;
62457;SDS011;48509;52.122;5.250;2022-09-17T09:36:26;8.5;;;1.6;;
62457;SDS011;48509;52.122;5.250;2022-09-17T09:38:09;8.31;;;1.6;;
62457;SDS011;48509;52.122;5.250;2022-09-17T09:41:56;5.6;;;1.4;;
62457;SDS011;48509;52.122;5.250;2022-09-17T09:43:38;8.2;;;1.6;;
62457;SDS011;48509;52.122;5.250;2022-09-17T09:45:22;7.0;;;1.7;;
62457;SDS011;48509;52.122;5.250;2022-09-17T09:47:23;6.9;;;1.4;;
62457;SDS011;48509;52.122;5.250;2022-09-17T09:49:21;9.4;;;1.7;;
62457;SDS011;48509;52.122;5.250;2022-09-17T09:51:15;9.31;;;1.7;;
62457;SDS011;48509;52.122;5.250;2022-09-17T09:53:05;9.5;;;1.6;;
62457;SDS011;48509;52.122;5.250;2022-09-17T09:54:57;7.8;;;1.6;;
62457;SDS011;48509;52.122;5.250;2022-09-17T09:58:33;10.4;;;2.1;;
62457;SDS011;48509;52.122;5.250;2022-09-17T10:00:18;8.81;;;1.8;;
62457;SDS011;48509;52.122;5.250;2022-09-17T10:01:58;9.0;;;1.3;;
62457;SDS011;48509;52.122;5.250;2022-09-17T10:03:35;9.4;;;1.7;;
62457;SDS011;48509;52.122;5.250;2022-09-17T10:05:16;10.7;;;1.7;;
62457;SDS011;48509;52.122;5.250;2022-09-17T10:08:35;10.5;;;1.7;;
62457;SDS011;48509;52.122;5.250;2022-09-17T10:10:13;7.3;;;1.5;;
62457;SDS011;48509;52.122;5.250;2022-09-17T10:12:05;8.81;;;1.6;;
62457;SDS011;48509;52.122;5.250;2022-09-17T10:13:52;5.0;;;1.2;;
62457;SDS011;48509;52.122;5.250;2022-09-17T10:15:50;9.5;;;1.4;;
62457;SDS011;48509;52.122;5.250;2022-09-17T10:19:10;6.9;;;1.3;;
62457;SDS011;48509;52.122;5.250;2022-09-17T10:20:49;6.0;;;1.4;;
62457;SDS011;48509;52.122;5.250;2022-09-17T10:24:11;5.5;;;1.2;;
62457;SDS011;48509;52.122;5.250;2022-09-17T10:27:35;7.7;;;1.4;;
62457;SDS011;48509;52.122;5.250;2022-09-17T10:29:12;7.7;;;1.4;;
62457;SDS011;48509;52.122;5.250;2022-09-17T10:30:54;6.9;;;1.3;;
62457;SDS011;48509;52.122;5.250;2022-09-17T10:32:32;7.1;;;1.4;;
62457;SDS011;48509;52.122;5.250;2022-09-17T10:35:57;9.31;;;1.6;;
62457;SDS011;48509;52.122;5.250;2022-09-17T10:37:42;9.6;;;1.6;;
62457;SDS011;48509;52.122;5.250;2022-09-17T10:39:28;6.3;;;1.4;;
62457;SDS011;48509;52.122;5.250;2022-09-17T10:41:10;9.21;;;1.8;;
62457;SDS011;48509;52.122;5.250;2022-09-17T10:44:52;11.1;;;1.4;;
62457;SDS011;48509;52.122;5.250;2022-09-17T10:46:32;9.4;;;1.7;;
62457;SDS011;48509;52.122;5.250;2022-09-17T10:48:12;7.5;;;1.5;;
62457;SDS011;48509;52.122;5.250;2022-09-17T10:49:53;9.5;;;1.7;;
62457;SDS011;48509;52.122;5.250;2022-09-17T10:51:32;9.6;;;2.0;;
62457;SDS011;48509;52.122;5.250;2022-09-17T10:55:24;9.5;;;1.9;;
62457;SDS011;48509;52.122;5.250;2022-09-17T10:57:06;12.9;;;1.8;;
62457;SDS011;48509;52.122;5.250;2022-09-17T10:58:53;13.0;;;2.21;;
62457;SDS011;48509;52.122;5.250;2022-09-17T11:00:43;13.5;;;2.1;;
62457;SDS011;48509;52.122;5.250;2022-09-17T11:02:39;11.3;;;2.0;;
62457;SDS011;48509;52.122;5.250;2022-09-17T11:06:29;10.7;;;2.21;;
62457;SDS011;48509;52.122;5.250;2022-09-17T11:09:58;10.4;;;2.1;;
62457;SDS011;48509;52.122;5.250;2022-09-17T11:11:50;11.1;;;2.21;;
62457;SDS011;48509;52.122;5.250;2022-09-17T11:13:38;12.5;;;2.5;;
62457;SDS011;48509;52.122;5.250;2022-09-17T11:15:29;14.0;;;2.5;;
62457;SDS011;48509;52.122;5.250;2022-09-17T11:17:24;12.4;;;2.5;;
62457;SDS011;48509;52.122;5.250;2022-09-17T11:19:18;18.3;;;2.8;;
62457;SDS011;48509;52.122;5.250;2022-09-17T11:21:13;10.21;;;2.21;;
62457;SDS011;48509;52.122;5.250;2022-09-17T11:23:07;15.7;;;2.7;;
62457;SDS011;48509;52.122;5.250;2022-09-17T11:25:06;14.9;;;2.9;;
62457;SDS011;48509;52.122;5.250;2022-09-17T11:27:00;14.6;;;2.9;;
62457;SDS011;48509;52.122;5.250;2022-09-17T11:30:42;11.7;;;2.7;;
62457;SDS011;48509;52.122;5.250;2022-09-17T11:32:33;12.7;;;2.7;;
62457;SDS011;48509;52.122;5.250;2022-09-17T11:34:26;15.6;;;2.9;;
62457;SDS011;48509;52.122;5.250;2022-09-17T11:36:09;12.8;;;2.7;;
62457;SDS011;48509;52.122;5.250;2022-09-17T11:37:49;15.0;;;2.7;;
62457;SDS011;48509;52.122;5.250;2022-09-17T11:39:32;14.3;;;2.5;;
62457;SDS011;48509;52.122;5.250;2022-09-17T11:42:58;15.2;;;2.7;;
62457;SDS011;48509;52.122;5.250;2022-09-17T11:44:41;18.3;;;2.8;;
62457;SDS011;48509;52.122;5.250;2022-09-17T11:46:26;13.7;;;2.5;;
62457;SDS011;48509;52.122;5.250;2022-09-17T11:48:10;13.8;;;2.7;;
62457;SDS011;48509;52.122;5.250;2022-09-17T11:49:53;9.71;;;2.21;;
62457;SDS011;48509;52.122;5.250;2022-09-17T11:53:17;13.0;;;2.1;;
62457;SDS011;48509;52.122;5.250;2022-09-17T11:54:58;9.5;;;2.21;;
62457;SDS011;48509;52.122;5.250;2022-09-17T11:56:53;13.7;;;2.0;;
62457;SDS011;48509;52.122;5.250;2022-09-17T11:58:41;7.8;;;1.7;;
62457;SDS011;48509;52.122;5.250;2022-09-17T12:00:22;8.9;;;1.8;;
62457;SDS011;48509;52.122;5.250;2022-09-17T12:03:41;9.5;;;2.0;;
62457;SDS011;48509;52.122;5.250;2022-09-17T12:05:25;9.71;;;2.21;;
62457;SDS011;48509;52.122;5.250;2022-09-17T12:07:10;12.5;;;2.5;;
62457;SDS011;48509;52.122;5.250;2022-09-17T12:08:58;16.7;;;2.6;;
62457;SDS011;48509;52.122;5.250;2022-09-17T12:12:24;13.7;;;2.6;;
62457;SDS011;48509;52.122;5.250;2022-09-17T12:14:04;12.9;;;2.8;;
62457;SDS011;48509;52.122;5.250;2022-09-17T12:15:51;12.6;;;2.6;;
62457;SDS011;48509;52.122;5.250;2022-09-17T12:17:46;14.9;;;2.7;;
62457;SDS011;48509;52.122;5.250;2022-09-17T12:19:31;16.11;;;2.8;;
62457;SDS011;48509;52.122;5.250;2022-09-17T12:22:54;15.4;;;2.5;;
62457;SDS011;48509;52.122;5.250;2022-09-17T12:24:34;17.8;;;2.7;;
62457;SDS011;48509;52.122;5.250;2022-09-17T12:26:16;13.7;;;2.7;;
62457;SDS011;48509;52.122;5.250;2022-09-17T12:28:02;15.0;;;2.6;;
62457;SDS011;48509;52.122;5.250;2022-09-17T12:29:48;14.6;;;2.21;;
62457;SDS011;48509;52.122;5.250;2022-09-17T12:31:49;14.5;;;2.5;;
62457;SDS011;48509;52.122;5.250;2022-09-17T12:35:21;12.7;;;2.4;;
62457;SDS011;48509;52.122;5.250;2022-09-17T12:37:09;13.9;;;2.4;;
62457;SDS011;48509;52.122;5.250;2022-09-17T12:39:08;14.7;;;2.6;;
62457;SDS011;48509;52.122;5.250;2022-09-17T12:41:32;15.4;;;2.4;;
62457;SDS011;48509;52.122;5.250;2022-09-17T12:43:27;11.6;;;2.6;;
62457;SDS011;48509;52.122;5.250;2022-09-17T12:45:22;11.0;;;2.31;;
62457;SDS011;48509;52.122;5.250;2022-09-17T12:47:21;16.8;;;2.9;;
62457;SDS011;48509;52.122;5.250;2022-09-17T12:49:36;14.4;;;2.7;;
62457;SDS011;48509;52.122;5.250;2022-09-17T12:51:44;16.9;;;2.4;;
62457;SDS011;48509;52.122;5.250;2022-09-17T12:53:29;15.3;;;2.7;;
62457;SDS011;48509;52.122;5.250;2022-09-17T12:55:19;13.1;;;2.5;;